createdAt,value
2018-05-04T00:00:38.930Z,14.70
2018-05-04T00:03:06.522Z,14.90
2018-05-04T00:05:34.107Z,15.00
2018-05-04T00:08:02.475Z,15.30
2018-05-04T00:10:30.055Z,15.30
2018-05-04T00:12:57.640Z,15.20
2018-05-04T00:15:26.008Z,14.40
2018-05-04T00:17:53.582Z,14.40
2018-05-04T00:20:21.178Z,14.40
2018-05-04T00:22:49.523Z,15.40
2018-05-04T00:25:17.094Z,15.30
2018-05-04T00:27:44.686Z,15.60
2018-05-04T00:30:12.261Z,14.30
2018-05-04T00:32:39.863Z,15.00
2018-05-04T00:35:08.203Z,13.80
2018-05-04T00:37:35.767Z,13.80
2018-05-04T00:40:03.359Z,13.90
2018-05-04T00:42:30.942Z,14.30
2018-05-04T00:44:58.541Z,14.30
2018-05-04T00:47:26.879Z,14.20
2018-05-04T00:49:54.476Z,14.20
2018-05-04T00:52:22.066Z,14.30
2018-05-04T00:54:50.422Z,13.40
2018-05-04T00:57:18.017Z,13.40
2018-05-04T00:59:45.577Z,13.80
2018-05-04T01:02:13.191Z,13.80
2018-05-04T01:04:41.521Z,13.80
2018-05-04T01:07:09.108Z,13.80
2018-05-04T01:09:36.690Z,13.50
2018-05-04T01:12:04.267Z,13.30
2018-05-04T01:14:31.866Z,13.60
2018-05-04T01:16:59.444Z,13.40
2018-05-04T01:19:27.791Z,12.90
2018-05-04T01:21:55.405Z,12.90
2018-05-04T01:24:23.733Z,13.40
2018-05-04T01:26:51.336Z,13.40
2018-05-04T01:29:18.915Z,13.30
2018-05-04T01:31:46.486Z,12.20
2018-05-04T01:34:14.074Z,12.20
2018-05-04T01:36:41.668Z,12.90
2018-05-04T01:39:10.054Z,12.80
2018-05-04T01:41:38.391Z,13.60
2018-05-04T01:44:05.963Z,13.50
2018-05-04T01:46:33.555Z,13.30
2018-05-04T01:49:01.123Z,14.70
2018-05-04T01:51:28.727Z,14.00
2018-05-04T01:53:56.314Z,15.40
2018-05-04T01:56:24.655Z,14.40
2018-05-04T01:58:52.258Z,14.40
2018-05-04T02:01:19.830Z,15.10
2018-05-04T02:03:47.406Z,15.20
2018-05-04T02:06:15.007Z,15.20
2018-05-04T02:08:43.350Z,15.80
2018-05-04T02:11:10.927Z,15.80
2018-05-04T02:13:38.526Z,16.30
2018-05-04T02:16:06.099Z,16.00
2018-05-04T02:18:34.435Z,16.40
2018-05-04T02:21:02.034Z,16.40
2018-05-04T02:23:29.606Z,16.40
2018-05-04T02:25:57.181Z,17.20
2018-05-04T02:28:24.781Z,16.40
2018-05-04T02:30:53.124Z,17.60
2018-05-04T02:33:20.697Z,17.60
2018-05-04T02:35:48.289Z,18.00
2018-05-04T02:38:15.859Z,18.60
2018-05-04T02:40:43.442Z,18.80
2018-05-04T02:43:11.055Z,18.60
2018-05-04T02:45:38.622Z,18.90
2018-05-04T02:48:06.959Z,19.60
2018-05-04T02:50:34.605Z,19.60
2018-05-04T02:53:02.173Z,19.70
2018-05-04T02:55:29.835Z,20.20
2018-05-04T02:57:57.395Z,19.80
2018-05-04T03:00:25.729Z,20.00
2018-05-04T03:02:53.323Z,20.00
2018-05-04T03:05:20.917Z,19.70
2018-05-04T03:07:48.499Z,20.00
2018-05-04T03:10:16.070Z,20.60
2018-05-04T03:12:44.442Z,21.40
2018-05-04T03:15:12.007Z,21.30
2018-05-04T03:17:39.590Z,21.50
2018-05-04T03:20:07.187Z,19.70
2018-05-04T03:22:35.516Z,20.50
2018-05-04T03:25:03.087Z,20.50
2018-05-04T03:27:30.689Z,22.10
2018-05-04T03:29:58.250Z,21.40
2018-05-04T03:32:25.824Z,21.00
2018-05-04T03:34:53.426Z,22.40
2018-05-04T03:37:20.997Z,23.10
2018-05-04T03:39:48.561Z,23.20
2018-05-04T03:42:16.166Z,22.80
2018-05-04T03:44:44.506Z,23.00
2018-05-04T03:47:13.612Z,23.00
2018-05-04T03:49:41.211Z,23.20
2018-05-04T03:52:08.867Z,23.90
2018-05-04T03:54:36.374Z,25.40
2018-05-04T03:57:15.969Z,26.50
2018-05-04T03:59:55.458Z,27.60
2018-05-04T04:02:34.909Z,26.70
2018-05-04T04:05:03.187Z,27.60
2018-05-04T04:07:30.803Z,27.60
2018-05-04T04:09:59.180Z,31.00
2018-05-04T04:12:26.757Z,30.30
2018-05-04T04:14:54.326Z,29.70
2018-05-04T04:17:21.927Z,29.50
2018-05-04T04:19:50.254Z,30.70
2018-05-04T04:22:17.822Z,30.60
2018-05-04T04:24:45.420Z,30.40
2018-05-04T04:27:13.003Z,28.00
2018-05-04T04:29:40.570Z,28.20
2018-05-04T04:32:08.225Z,28.90
2018-05-04T04:34:36.040Z,28.40
2018-05-04T04:37:03.672Z,28.30
2018-05-04T04:39:31.351Z,28.30
2018-05-04T04:41:58.929Z,28.20
2018-05-04T04:44:26.506Z,28.30
2018-05-04T04:46:54.106Z,28.00
2018-05-04T04:49:21.684Z,28.90
2018-05-04T04:51:50.021Z,27.20
2018-05-04T04:54:17.731Z,27.20
2018-05-04T04:56:45.307Z,27.50
2018-05-04T04:59:12.915Z,27.60
2018-05-04T05:01:41.349Z,27.30
2018-05-04T05:04:08.922Z,27.30
2018-05-04T05:06:36.498Z,26.80
2018-05-04T05:09:04.114Z,26.30
2018-05-04T05:11:32.450Z,27.60
2018-05-04T05:14:00.025Z,27.60
2018-05-04T05:16:27.639Z,28.30
2018-05-04T05:18:55.215Z,27.40
2018-05-04T05:21:23.554Z,26.70
2018-05-04T05:23:51.145Z,26.70
2018-05-04T05:26:18.712Z,25.20
2018-05-04T05:28:46.286Z,25.70
2018-05-04T05:31:13.889Z,26.50
2018-05-04T05:33:41.467Z,26.60
2018-05-04T05:36:09.039Z,26.70
2018-05-04T05:38:36.651Z,26.40
2018-05-04T05:41:04.222Z,26.90
2018-05-04T05:43:31.846Z,27.10
2018-05-04T05:45:59.445Z,27.10
2018-05-04T05:48:27.022Z,25.80
2018-05-04T05:50:55.368Z,27.10
2018-05-04T05:53:22.971Z,27.10
2018-05-04T05:55:50.537Z,27.30
2018-05-04T05:58:18.127Z,27.70
2018-05-04T06:00:46.490Z,28.50
2018-05-04T06:03:14.069Z,28.50
2018-05-04T06:05:41.642Z,26.30
2018-05-04T06:08:09.246Z,27.00
2018-05-04T06:10:37.589Z,28.30
2018-05-04T06:13:05.167Z,28.30
2018-05-04T06:15:32.766Z,28.20
2018-05-04T06:18:00.334Z,26.90
2018-05-04T06:20:27.903Z,27.40
2018-05-04T06:22:55.492Z,25.30
2018-05-04T06:25:23.827Z,26.90
2018-05-04T06:27:51.395Z,26.90
2018-05-04T06:30:18.990Z,26.60
2018-05-04T06:32:46.580Z,26.70
2018-05-04T06:35:14.154Z,27.30
2018-05-04T06:37:41.769Z,26.00
2018-05-04T06:40:09.341Z,27.20
2018-05-04T06:42:36.909Z,26.90
2018-05-04T06:45:04.550Z,25.60
2018-05-04T06:47:32.126Z,25.70
2018-05-04T06:49:59.734Z,25.10
2018-05-04T06:52:27.440Z,24.40
2018-05-04T06:54:55.011Z,24.50
2018-05-04T06:57:22.583Z,25.10
2018-05-04T06:59:50.186Z,24.40
2018-05-04T07:02:17.753Z,22.20
2018-05-04T07:04:45.319Z,20.90
2018-05-04T07:07:13.258Z,20.80
2018-05-04T07:09:40.835Z,20.80
2018-05-04T07:12:08.406Z,20.90
2018-05-04T07:14:36.015Z,20.10
2018-05-04T07:17:03.598Z,19.30
2018-05-04T07:19:31.160Z,18.20
2018-05-04T07:21:58.754Z,17.30
2018-05-04T07:24:26.355Z,17.20
2018-05-04T07:26:55.321Z,14.40
2018-05-04T07:29:22.907Z,14.40
2018-05-04T07:31:50.460Z,14.20
2018-05-04T07:34:18.014Z,14.70
2018-05-04T07:36:45.592Z,14.90
2018-05-04T07:39:13.133Z,13.20
2018-05-04T07:41:41.448Z,13.60
2018-05-04T07:44:09.031Z,13.60
2018-05-04T07:46:36.587Z,14.10
2018-05-04T07:49:04.150Z,13.70
2018-05-04T07:51:31.739Z,13.10
2018-05-04T07:53:59.291Z,12.50
2018-05-04T07:56:36.422Z,11.20
2018-05-04T07:59:03.969Z,11.20
2018-05-04T08:01:31.532Z,10.20
2018-05-04T08:03:59.908Z,10.80
2018-05-04T08:06:27.463Z,10.80
2018-05-04T08:08:55.022Z,11.10
2018-05-04T08:11:22.648Z,10.30
2018-05-04T08:13:50.223Z,9.90
2018-05-04T08:16:17.770Z,8.80
2018-05-04T08:18:45.333Z,8.50
2018-05-04T08:21:12.883Z,8.10
2018-05-04T08:23:40.443Z,6.50
2018-05-04T08:26:08.018Z,5.90
2018-05-04T08:28:35.581Z,5.60
2018-05-04T08:31:03.117Z,7.50
2018-05-04T08:33:31.469Z,4.70
2018-05-04T08:35:59.018Z,4.70
2018-05-04T08:38:26.553Z,4.30
2018-05-04T08:40:54.194Z,6.50
2018-05-04T08:43:21.702Z,7.80
2018-05-04T08:45:50.016Z,6.80
2018-05-04T08:48:17.671Z,6.80
2018-05-04T08:50:45.142Z,6.30
2018-05-04T08:53:12.687Z,6.50
2018-05-04T08:55:40.299Z,5.60
2018-05-04T08:58:07.837Z,5.90
2018-05-04T09:00:36.152Z,7.40
2018-05-04T09:03:03.730Z,7.30
2018-05-04T09:05:31.304Z,4.40
2018-05-04T09:07:59.600Z,3.30
2018-05-04T09:10:27.174Z,3.10
2018-05-04T09:12:54.741Z,3.60
2018-05-04T09:15:22.286Z,4.70
2018-05-04T09:17:50.622Z,4.00
2018-05-04T09:20:18.162Z,3.80
2018-05-04T09:22:45.726Z,3.30
2018-05-04T09:25:13.400Z,3.00
2018-05-04T09:27:40.882Z,1.70
2018-05-04T09:30:08.434Z,1.40
2018-05-04T09:32:36.784Z,3.20
2018-05-04T09:35:04.325Z,3.20
2018-05-04T09:37:31.862Z,3.70
2018-05-04T09:39:59.443Z,4.10
2018-05-04T09:42:27.759Z,1.60
2018-05-04T09:44:55.314Z,1.60
2018-05-04T09:47:23.671Z,4.30
2018-05-04T09:49:51.215Z,4.20
2018-05-04T09:52:18.763Z,5.20
2018-05-04T09:54:46.336Z,5.10
2018-05-04T09:57:13.877Z,5.20
2018-05-04T09:59:42.181Z,5.20
2018-05-04T10:02:10.527Z,4.70
2018-05-04T10:04:38.074Z,5.30
2018-05-04T10:07:05.618Z,3.70
2018-05-04T10:09:33.955Z,1.90
2018-05-04T10:12:01.498Z,1.90
2018-05-04T10:14:29.050Z,2.70
2018-05-04T10:16:57.434Z,1.00
2018-05-04T10:19:25.738Z,3.70
2018-05-04T10:21:54.061Z,1.00
2018-05-04T10:24:21.645Z,1.00
2018-05-04T10:26:49.186Z,1.00
2018-05-04T10:29:16.743Z,1.00
2018-05-04T10:31:45.091Z,1.00
2018-05-04T10:34:12.634Z,1.00
2018-05-04T10:36:40.178Z,1.00
2018-05-04T10:39:08.514Z,1.00
2018-05-04T10:41:36.062Z,1.00
2018-05-04T10:44:03.657Z,1.00
2018-05-04T10:46:31.234Z,1.00
2018-05-04T10:48:58.779Z,1.00
2018-05-04T10:51:26.318Z,2.40
2018-05-04T10:53:54.649Z,2.00
2018-05-04T10:56:22.200Z,1.90
2018-05-04T10:58:49.811Z,1.30
2018-05-04T11:01:17.379Z,2.00
2018-05-04T11:03:44.909Z,2.70
2018-05-04T11:06:13.217Z,1.00
2018-05-04T11:08:40.813Z,1.00
2018-05-04T11:11:08.345Z,2.00
2018-05-04T11:13:35.890Z,1.00
2018-05-04T11:16:03.467Z,1.10
2018-05-04T11:18:31.007Z,1.10
2018-05-04T11:20:58.554Z,1.00
2018-05-04T11:23:26.127Z,1.80
2018-05-04T11:25:53.680Z,1.70
2018-05-04T11:28:21.237Z,2.00
2018-05-04T11:30:49.585Z,4.00
2018-05-04T11:33:17.143Z,3.90
2018-05-04T11:35:44.699Z,4.00
2018-05-04T11:38:12.280Z,3.60
2018-05-04T11:40:39.816Z,5.00
2018-05-04T11:43:08.128Z,6.50
2018-05-04T11:45:35.709Z,6.50
2018-05-04T11:48:03.259Z,6.00
2018-05-04T11:50:30.814Z,7.20
2018-05-04T11:52:59.155Z,7.80
2018-05-04T11:55:26.703Z,7.40
2018-05-04T11:57:54.245Z,5.40
2018-05-04T12:00:21.814Z,6.50
2018-05-04T12:02:49.362Z,6.50
2018-05-04T12:05:16.921Z,7.90
2018-05-04T12:07:44.498Z,7.50
2018-05-04T12:10:12.043Z,6.90
2018-05-04T12:12:39.595Z,7.80
2018-05-04T12:15:07.945Z,8.20
2018-05-04T12:17:35.490Z,8.10
2018-05-04T12:20:03.030Z,8.70
2018-05-04T12:22:30.608Z,7.20
2018-05-04T12:24:58.149Z,8.60
2018-05-04T12:27:25.699Z,6.60
2018-05-04T12:29:53.273Z,6.90
2018-05-04T12:32:20.809Z,8.60
2018-05-04T12:34:48.438Z,7.00
2018-05-04T12:37:15.955Z,6.50
2018-05-04T12:39:43.497Z,5.90
2018-05-04T12:42:11.815Z,6.30
2018-05-04T12:44:39.403Z,6.20
2018-05-04T12:47:07.097Z,8.60
2018-05-04T12:49:34.517Z,8.30
2018-05-04T12:52:02.094Z,6.00
2018-05-04T12:54:29.652Z,6.60
2018-05-04T12:56:57.973Z,6.60
2018-05-04T12:59:25.614Z,6.60
2018-05-04T13:01:53.931Z,6.40
2018-05-04T13:04:21.559Z,6.40
2018-05-04T13:06:49.143Z,7.60
2018-05-04T13:09:16.673Z,6.70
2018-05-04T13:11:44.222Z,6.70
2018-05-04T13:14:11.794Z,8.30
2018-05-04T13:16:39.333Z,6.80
2018-05-04T13:19:07.646Z,7.10
2018-05-04T13:21:35.213Z,7.10
2018-05-04T13:24:02.762Z,6.90
2018-05-04T13:26:30.320Z,7.90
2018-05-04T13:28:57.901Z,8.50
2018-05-04T13:31:25.453Z,6.60
2018-05-04T13:33:53.002Z,4.90
2018-05-04T13:36:20.602Z,6.30
2018-05-04T13:38:48.185Z,6.60
2018-05-04T13:41:15.727Z,4.90
2018-05-04T13:43:43.302Z,6.90
2018-05-04T13:46:10.847Z,7.60
2018-05-04T13:48:38.403Z,6.10
2018-05-04T13:51:06.771Z,5.80
2018-05-04T13:53:34.314Z,5.80
2018-05-04T13:56:01.864Z,7.50
2018-05-04T13:58:29.462Z,5.50
2018-05-04T14:00:57.006Z,5.50
2018-05-04T14:03:24.554Z,6.40
2018-05-04T14:05:52.894Z,5.40
2018-05-04T14:08:20.707Z,5.40
2018-05-04T14:10:49.017Z,7.50
2018-05-04T14:13:16.609Z,7.00
2018-05-04T14:15:44.158Z,5.80
2018-05-04T14:18:12.462Z,7.30
2018-05-04T14:20:40.042Z,7.20
2018-05-04T14:23:07.594Z,7.30
2018-05-04T14:25:35.155Z,6.40
2018-05-04T14:28:03.485Z,7.20
2018-05-04T14:30:31.070Z,6.60
2018-05-04T14:32:58.622Z,6.10
2018-05-04T14:35:26.208Z,6.10
2018-05-04T14:37:55.106Z,6.20
2018-05-04T14:40:22.855Z,8.10
2018-05-04T14:42:51.225Z,8.50
2018-05-04T14:45:18.766Z,8.50
2018-05-04T14:47:46.330Z,8.00
2018-05-04T14:50:13.919Z,7.20
2018-05-04T14:52:41.462Z,8.20
2018-05-04T14:55:09.003Z,8.30
2018-05-04T14:57:37.355Z,8.70
2018-05-04T15:00:04.944Z,8.70
2018-05-04T15:02:32.491Z,9.60
2018-05-04T15:05:00.131Z,10.70
2018-05-04T15:07:27.678Z,10.00
2018-05-04T15:09:55.996Z,9.00
2018-05-04T15:12:23.573Z,8.90
2018-05-04T15:14:51.139Z,10.20
2018-05-04T15:17:18.700Z,9.30
2018-05-04T15:19:46.278Z,10.60
2018-05-04T15:22:13.825Z,10.80
2018-05-04T15:24:41.374Z,10.40
2018-05-04T15:27:08.949Z,10.30
2018-05-04T15:29:36.502Z,11.10
2018-05-04T15:32:04.051Z,10.80
2018-05-04T15:34:31.687Z,10.70
2018-05-04T15:37:00.036Z,10.80
2018-05-04T15:39:27.591Z,10.80
2018-05-04T15:41:55.172Z,11.80
2018-05-04T15:44:22.770Z,11.10
2018-05-04T15:46:50.801Z,10.50
2018-05-04T15:49:19.153Z,11.60
2018-05-04T15:51:52.365Z,11.70
2018-05-04T15:54:20.049Z,11.10
2018-05-04T15:56:47.598Z,11.20
2018-05-04T15:59:15.155Z,11.50
2018-05-04T16:01:42.751Z,10.90
2018-05-04T16:04:10.302Z,11.20
2018-05-04T16:06:37.853Z,11.00
2018-05-04T16:09:05.435Z,11.90
2018-05-04T16:11:33.003Z,11.00
2018-05-04T16:14:00.573Z,10.30
2018-05-04T16:16:28.159Z,11.20
2018-05-04T16:18:55.720Z,11.30
2018-05-04T16:21:23.274Z,12.00
2018-05-04T16:23:50.873Z,11.70
2018-05-04T16:26:18.447Z,12.10
2018-05-04T16:28:46.068Z,11.90
2018-05-04T16:31:13.608Z,11.50
2018-05-04T16:33:41.170Z,12.50
2018-05-04T16:36:08.725Z,12.50
2018-05-04T16:38:36.297Z,12.70
2018-05-04T16:41:03.868Z,12.90
2018-05-04T16:43:31.448Z,12.90
2018-05-04T16:45:59.040Z,11.70
2018-05-04T16:48:32.321Z,13.00
2018-05-04T16:51:00.013Z,12.50
2018-05-04T16:53:27.570Z,12.20
2018-05-04T16:55:55.144Z,12.50
2018-05-04T16:58:22.722Z,12.60
2018-05-04T17:00:50.299Z,12.20
2018-05-04T17:03:17.874Z,12.80
2018-05-04T17:05:45.473Z,12.40
2018-05-04T17:08:13.047Z,12.40
2018-05-04T17:10:40.607Z,12.90
2018-05-04T17:13:08.195Z,12.40
2018-05-04T17:15:35.800Z,12.40
2018-05-04T17:18:03.397Z,12.10
2018-05-04T17:20:31.013Z,12.90
2018-05-04T17:22:59.428Z,14.10
2018-05-04T17:25:27.758Z,13.60
2018-05-04T17:27:55.354Z,13.60
2018-05-04T17:30:23.001Z,13.90
2018-05-04T17:32:50.566Z,13.20
2018-05-04T17:35:18.172Z,13.70
2018-05-04T17:37:45.751Z,13.50
2018-05-04T17:40:13.387Z,14.40
2018-05-04T17:42:41.735Z,14.90
2018-05-04T17:45:09.465Z,14.90
2018-05-04T17:47:37.080Z,15.70
2018-05-04T17:50:04.659Z,15.80
2018-05-04T17:52:32.243Z,15.50
2018-05-04T17:54:59.821Z,15.70
2018-05-04T17:57:27.460Z,16.10
2018-05-04T17:59:55.031Z,16.30
2018-05-04T18:02:22.632Z,16.70
2018-05-04T18:04:50.213Z,16.90
2018-05-04T18:07:17.770Z,17.20
2018-05-04T18:09:46.116Z,17.70
2018-05-04T18:12:13.741Z,17.50
2018-05-04T18:14:41.382Z,17.40
2018-05-04T18:17:08.967Z,18.10
2018-05-04T18:19:36.643Z,17.20
2018-05-04T18:22:04.232Z,17.60
2018-05-04T18:24:32.607Z,18.00
2018-05-04T18:27:00.219Z,18.00
2018-05-04T18:29:27.990Z,18.90
2018-05-04T18:31:56.357Z,19.40
2018-05-04T18:34:24.293Z,19.40
2018-05-04T18:36:51.947Z,18.90
2018-05-04T18:39:19.679Z,18.40
2018-05-04T18:41:48.722Z,18.30
2018-05-04T18:44:16.396Z,18.20
2018-05-04T18:46:45.013Z,18.00
2018-05-04T18:49:12.660Z,18.00
2018-05-04T18:51:41.245Z,19.30
2018-05-04T18:54:09.728Z,19.30
2018-05-04T18:56:37.441Z,19.40
2018-05-04T18:59:05.912Z,19.60
2018-05-04T19:01:33.578Z,19.50
2018-05-04T19:04:01.703Z,19.90
2018-05-04T19:06:29.354Z,20.00
2018-05-04T19:08:56.956Z,20.00
2018-05-04T19:11:24.579Z,21.20
2018-05-04T19:13:52.377Z,21.00
2018-05-04T19:16:19.984Z,22.20
2018-05-04T19:18:47.646Z,21.70
2018-05-04T19:21:15.559Z,22.10
2018-05-04T19:23:43.149Z,23.10
2018-05-04T19:26:10.798Z,22.80
2018-05-04T19:28:38.394Z,23.70
2018-05-04T19:31:05.980Z,24.20
2018-05-04T19:33:33.594Z,24.00
2018-05-04T19:36:02.065Z,23.90
2018-05-04T19:38:29.825Z,23.90
2018-05-04T19:40:57.637Z,24.70
2018-05-04T19:43:25.979Z,25.20
2018-05-04T19:45:53.635Z,25.20
2018-05-04T19:48:21.803Z,25.20
2018-05-04T19:50:49.426Z,25.60
2018-05-04T19:53:17.021Z,25.00
2018-05-04T19:55:45.251Z,26.00
2018-05-04T19:58:12.887Z,26.90
2018-05-04T20:00:40.449Z,26.00
2018-05-04T20:03:08.051Z,25.60
2018-05-04T20:05:36.630Z,26.10
2018-05-04T20:08:04.227Z,26.10
2018-05-04T20:10:32.003Z,27.80
2018-05-04T20:12:59.577Z,27.70
2018-05-04T20:15:27.149Z,27.70
2018-05-04T20:17:54.845Z,26.70
2018-05-04T20:20:22.434Z,27.40
2018-05-04T20:22:50.016Z,27.50
2018-05-04T20:25:17.623Z,27.50
2018-05-04T20:27:45.391Z,27.20
2018-05-04T20:30:13.002Z,26.70
2018-05-04T20:32:40.604Z,27.10
2018-05-04T20:35:08.181Z,28.00
2018-05-04T20:37:35.769Z,28.80
2018-05-04T20:40:03.377Z,29.80
2018-05-04T20:42:31.714Z,29.80
2018-05-04T20:44:59.339Z,29.80
2018-05-04T20:47:26.963Z,30.30
2018-05-04T20:49:54.562Z,30.20
2018-05-04T20:52:22.138Z,30.20
2018-05-04T20:54:49.905Z,29.20
2018-05-04T20:57:17.478Z,29.70
2018-05-04T20:59:45.063Z,30.20
2018-05-04T21:02:12.661Z,31.40
2018-05-04T21:04:41.049Z,31.30
2018-05-04T21:07:09.393Z,31.60
2018-05-04T21:09:37.039Z,31.50
2018-05-04T21:12:04.614Z,31.10
2018-05-04T21:14:32.239Z,30.60
2018-05-04T21:16:59.814Z,30.50
2018-05-04T21:19:27.391Z,30.00
2018-05-04T21:21:54.957Z,30.70
2018-05-04T21:24:22.553Z,30.50
2018-05-04T21:26:50.896Z,31.40
2018-05-04T21:29:18.479Z,31.30
2018-05-04T21:31:46.084Z,31.00
2018-05-04T21:34:14.409Z,31.00
2018-05-04T21:36:41.986Z,31.00
2018-05-04T21:39:09.618Z,31.70
2018-05-04T21:41:37.190Z,32.00
2018-05-04T21:44:05.534Z,32.10
2018-05-04T21:46:33.130Z,32.10
2018-05-04T21:49:00.730Z,32.00
2018-05-04T21:51:29.063Z,34.10
2018-05-04T21:53:56.662Z,34.00
2018-05-04T21:56:24.230Z,34.20
2018-05-04T21:58:51.806Z,33.30
2018-05-04T22:01:19.411Z,33.80
2018-05-04T22:03:47.752Z,34.50
2018-05-04T22:06:15.332Z,34.50
2018-05-04T22:08:42.943Z,34.60
2018-05-04T22:11:11.273Z,33.60
2018-05-04T22:13:38.848Z,33.40
2018-05-04T22:16:06.446Z,34.10
2018-05-04T22:18:34.020Z,34.50
2018-05-04T22:21:01.586Z,34.00
2018-05-04T22:23:29.193Z,33.90
2018-05-04T22:25:56.761Z,33.90
2018-05-04T22:28:24.331Z,34.50
2018-05-04T22:30:51.935Z,35.70
2018-05-04T22:33:19.501Z,36.00
2018-05-04T22:35:47.851Z,36.50
2018-05-04T22:38:15.455Z,36.40
2018-05-04T22:40:43.799Z,36.80
2018-05-04T22:43:11.384Z,36.80
2018-05-04T22:45:38.994Z,36.40
2018-05-04T22:48:07.331Z,38.10
2018-05-04T22:50:34.917Z,38.00
2018-05-04T22:53:02.513Z,36.60
2018-05-04T22:55:30.103Z,37.30
2018-05-04T22:57:58.438Z,36.70
2018-05-04T23:00:26.043Z,36.70
2018-05-04T23:02:53.619Z,36.60
2018-05-04T23:05:21.179Z,36.80
2018-05-04T23:07:48.778Z,37.20
2018-05-04T23:10:16.369Z,37.30
2018-05-04T23:12:44.710Z,38.10
2018-05-04T23:15:12.323Z,38.10
2018-05-04T23:17:40.664Z,37.30
2018-05-04T23:20:08.234Z,37.20
2018-05-04T23:22:35.826Z,37.30
2018-05-04T23:25:03.407Z,37.20
2018-05-04T23:27:30.990Z,37.70
2018-05-04T23:29:58.586Z,38.40
2018-05-04T23:32:26.174Z,38.80
2018-05-04T23:34:53.741Z,39.80
2018-05-04T23:37:22.101Z,39.50
2018-05-04T23:39:49.683Z,39.50
2018-05-04T23:42:18.026Z,40.10
2018-05-04T23:44:45.634Z,39.80
2018-05-04T23:47:13.201Z,40.20
2018-05-04T23:49:40.774Z,40.20
2018-05-04T23:52:08.384Z,39.90
2018-05-04T23:54:36.718Z,40.40
2018-05-04T23:57:04.277Z,40.40
2018-05-04T23:59:31.883Z,38.80
